Time;durP1;ratioP1;P1;durP2;ratioP2;P2;SDS_P1;SDS_P2;PMS_P1;PMS_P2;Temp;Humidity;BMP_temperature;BMP_pressure;BME280_temperature;BME280_humidity;BME280_pressure;Samples;Min_cycle;Max_cycle;Signal;HPM_P1;HPM_P2
2023/04/02 00:00:25;;;;;;;11.77;10.20;;;8.10;99.90;;;;;;5045606;28;20108;-76
2023/04/02 00:02:53;;;;;;;10.50;9.50;;;8.10;99.90;;;;;;5035662;28;20045;-76
2023/04/02 00:05:28;;;;;;;13.60;11.00;;;8.00;99.90;;;;;;5031089;28;20056;-76
2023/04/02 00:08:16;;;;;;;11.20;9.67;;;8.00;99.90;;;;;;5035058;28;20025;-76
2023/04/02 00:10:54;;;;;;;10.70;9.43;;;7.90;99.90;;;;;;5037108;28;20025;-76
2023/04/02 00:13:27;;;;;;;12.00;9.37;;;7.90;99.90;;;;;;5032949;28;20058;-76
2023/04/02 00:15:56;;;;;;;9.83;8.83;;;7.90;99.90;;;;;;5022227;28;20025;-76
2023/04/02 00:18:23;;;;;;;9.37;8.47;;;7.90;99.90;;;;;;5030173;28;20125;-76
2023/04/02 00:21:14;;;;;;;10.07;8.80;;;7.90;99.90;;;;;;5035550;28;20578;-76
2023/04/02 00:23:42;;;;;;;8.87;7.97;;;7.90;99.90;;;;;;5036521;28;20551;-76
2023/04/02 00:26:23;;;;;;;11.10;7.87;;;7.80;99.90;;;;;;5032061;28;20038;-76
2023/04/02 00:28:50;;;;;;;13.17;8.83;;;7.90;99.90;;;;;;5019827;28;20095;-76
2023/04/02 00:31:18;;;;;;;10.13;8.77;;;7.80;99.90;;;;;;5034092;28;20117;-76
2023/04/02 00:33:45;;;;;;;8.63;7.83;;;7.80;99.90;;;;;;5029446;28;20067;-76
2023/04/02 00:36:11;;;;;;;11.10;9.40;;;7.80;99.90;;;;;;5047248;28;20025;-76
2023/04/02 00:38:37;;;;;;;10.37;9.27;;;7.80;99.90;;;;;;5045803;28;20025;-76
2023/04/02 00:41:05;;;;;;;12.53;10.23;;;7.80;99.90;;;;;;5048188;28;20098;-76
2023/04/02 00:43:35;;;;;;;10.67;9.57;;;7.80;99.90;;;;;;5033384;28;20042;-76
2023/04/02 00:46:09;;;;;;;10.43;7.77;;;7.80;99.90;;;;;;5030189;28;20029;-75
2023/04/02 00:48:50;;;;;;;8.93;8.03;;;7.80;99.90;;;;;;5033618;28;20025;-75
2023/04/02 00:51:24;;;;;;;10.03;9.13;;;7.70;99.90;;;;;;5026348;28;20034;-76
2023/04/02 00:53:52;;;;;;;;;;;7.80;99.90;;;;;;5017356;28;20030;-76
2023/04/02 00:56:28;;;;;;;10.63;9.53;;;7.70;99.90;;;;;;5030904;28;20385;-76
2023/04/02 00:58:56;;;;;;;9.93;9.03;;;7.70;99.90;;;;;;5018630;28;20166;-76
2023/04/02 01:01:26;;;;;;;11.67;8.97;;;7.70;99.90;;;;;;5032640;28;20032;-76
2023/04/02 01:04:00;;;;;;;10.43;8.60;;;7.70;99.90;;;;;;5021804;28;20083;-76
2023/04/02 01:06:35;;;;;;;10.18;8.93;;;7.70;99.90;;;;;;5025681;28;20080;-76
2023/04/02 01:09:17;;;;;;;10.83;9.10;;;7.70;99.90;;;;;;5033879;28;20102;-76
2023/04/02 01:11:53;;;;;;;10.17;8.87;;;7.70;99.90;;;;;;5045369;28;20049;-76
2023/04/02 01:14:44;;;;;;;10.80;9.13;;;7.70;99.90;;;;;;5033881;28;20481;-76
2023/04/02 01:17:41;;;;;;;8.87;7.83;;;7.70;99.90;;;;;;5035328;28;20549;-76
2023/04/02 01:20:15;;;;;;;8.77;7.90;;;7.70;99.90;;;;;;5037520;28;20064;-76
2023/04/02 01:23:23;;;;;;;11.03;9.17;;;7.60;99.90;;;;;;5024421;28;20022;-76
2023/04/02 01:26:17;;;;;;;10.30;8.77;;;7.60;99.90;;;;;;5012929;28;20038;-76
2023/04/02 01:29:03;;;;;;;9.55;8.25;;;7.60;99.90;;;;;;4952126;28;20445;-76
2023/04/02 01:31:31;;;;;;;9.43;8.43;;;7.60;99.90;;;;;;4963530;28;20031;-77
2023/04/02 01:33:58;;;;;;;8.67;7.57;;;7.50;99.90;;;;;;4954628;28;20082;-76
2023/04/02 01:36:55;;;;;;;9.13;8.27;;;7.50;99.90;;;;;;4961594;28;20055;-75
2023/04/02 01:39:44;;;;;;;8.73;6.87;;;7.50;99.90;;;;;;4958605;28;20035;-76
2023/04/02 01:42:20;;;;;;;9.97;8.20;;;7.40;99.90;;;;;;4958602;28;20026;-76
2023/04/02 01:44:52;;;;;;;7.73;7.03;;;7.40;99.90;;;;;;4959829;28;20423;-76
2023/04/02 01:47:23;;;;;;;7.77;6.97;;;7.40;99.90;;;;;;4960481;28;20513;-77
2023/04/02 01:49:52;;;;;;;9.37;7.70;;;7.30;99.90;;;;;;4963055;28;20035;-76
2023/04/02 01:52:34;;;;;;;8.43;7.63;;;7.30;99.90;;;;;;4934483;29;20645;-76
2023/04/02 01:55:00;;;;;;;10.83;8.30;;;7.30;99.90;;;;;;4942309;28;20524;-76
2023/04/02 01:57:27;;;;;;;9.83;7.53;;;7.30;99.90;;;;;;4946027;28;20026;-75
2023/04/02 01:59:53;;;;;;;10.53;8.40;;;7.30;99.90;;;;;;4948260;28;20119;-75
2023/04/02 02:02:20;;;;;;;12.07;9.33;;;7.20;99.90;;;;;;4966384;28;20050;-75
2023/04/02 02:04:46;;;;;;;10.63;9.10;;;7.20;99.90;;;;;;4964774;28;20066;-76
2023/04/02 02:07:15;;;;;;;9.90;8.93;;;7.20;99.90;;;;;;5018713;28;20061;-76
2023/04/02 02:09:41;;;;;;;10.27;9.07;;;7.20;99.90;;;;;;5027541;28;20104;-76
2023/04/02 02:12:12;;;;;;;9.97;8.83;;;7.20;99.90;;;;;;5022194;28;20104;-75
2023/04/02 02:14:38;;;;;;;10.33;9.33;;;7.30;99.90;;;;;;5020223;28;20502;-75
2023/04/02 02:17:12;;;;;;;9.67;8.70;;;7.20;99.90;;;;;;5022767;28;20382;-76
2023/04/02 02:19:42;;;;;;;11.75;9.60;;;7.20;99.90;;;;;;5019814;28;20079;-76
2023/04/02 02:22:31;;;;;;;10.33;8.67;;;7.20;99.90;;;;;;5018960;28;20112;-76
2023/04/02 02:24:59;;;;;;;10.93;9.83;;;7.20;99.90;;;;;;5013428;28;20029;-76
2023/04/02 02:27:39;;;;;;;11.97;10.67;;;7.10;99.90;;;;;;5030336;28;20028;-76
2023/04/02 02:30:21;;;;;;;15.37;12.30;;;7.10;99.90;;;;;;5021942;28;20478;-76
2023/04/02 02:32:52;;;;;;;14.10;12.60;;;7.10;99.90;;;;;;5022656;28;20021;-76
2023/04/02 02:35:27;;;;;;;16.13;13.87;;;7.10;99.90;;;;;;5024436;28;20057;-76
2023/04/02 02:38:18;;;;;;;17.40;14.30;;;7.10;99.90;;;;;;5028583;28;20030;-76
2023/04/02 02:40:46;;;;;;;16.03;14.07;;;7.10;99.90;;;;;;5020633;28;20018;-76
2023/04/02 02:43:15;;;;;;;20.90;16.13;;;7.10;99.90;;;;;;5020560;28;20022;-76
2023/04/02 02:45:42;;;;;;;19.27;13.67;;;7.10;99.90;;;;;;5026498;28;20112;-76
2023/04/02 02:48:13;;;;;;;16.33;13.97;;;7.10;99.90;;;;;;5020235;28;20169;-76
2023/04/02 02:50:40;;;;;;;16.53;13.53;;;7.10;99.90;;;;;;5021582;28;20052;-76
2023/04/02 02:53:15;;;;;;;15.10;13.60;;;7.00;99.90;;;;;;5023755;28;20029;-76
2023/04/02 02:55:41;;;;;;;14.43;12.87;;;7.00;99.90;;;;;;5046198;28;20116;-76
2023/04/02 02:58:14;;;;;;;15.67;13.47;;;7.00;99.90;;;;;;5013014;28;20187;-75
2023/04/02 03:00:42;;;;;;;16.08;11.55;;;7.00;99.90;;;;;;5011849;28;20034;-76
2023/04/02 03:03:12;;;;;;;13.30;10.63;;;7.00;99.90;;;;;;5027275;28;20068;-76
2023/04/02 03:05:39;;;;;;;13.83;10.43;;;7.00;99.90;;;;;;5035342;28;20359;-76
2023/04/02 03:08:10;;;;;;;13.40;10.17;;;7.00;99.90;;;;;;5033141;28;20029;-76
2023/04/02 03:10:40;;;;;;;10.63;9.23;;;7.00;99.90;;;;;;5034212;28;20027;-76
2023/04/02 03:13:18;;;;;;;10.67;9.03;;;6.90;99.90;;;;;;5031797;28;20048;-76
2023/04/02 03:16:11;;;;;;;12.23;10.07;;;6.80;99.90;;;;;;5034339;28;20018;-75
2023/04/02 03:18:51;;;;;;;9.93;8.60;;;6.80;99.90;;;;;;5035412;28;20024;-76
2023/04/02 03:21:32;;;;;;;11.50;8.87;;;6.70;99.90;;;;;;5034128;28;20108;-76
2023/04/02 03:24:08;;;;;;;11.67;8.27;;;6.60;99.90;;;;;;5032053;28;20029;-75
2023/04/02 03:26:49;;;;;;;10.37;8.97;;;6.60;99.90;;;;;;5035615;28;20035;-76
2023/04/02 03:29:25;;;;;;;12.20;9.20;;;6.60;99.90;;;;;;5034350;28;20026;-76
2023/04/02 03:32:03;;;;;;;11.90;8.90;;;6.60;99.90;;;;;;5045488;28;20032;-76
2023/04/02 03:34:45;;;;;;;10.80;9.63;;;6.60;99.90;;;;;;5032112;28;20108;-76
2023/04/02 03:37:19;;;;;;;9.63;8.43;;;6.50;99.90;;;;;;5019914;28;20022;-76
2023/04/02 03:40:05;;;;;;;9.10;8.20;;;6.50;99.90;;;;;;5031913;28;20730;-76
2023/04/02 03:42:46;;;;;;;9.77;7.73;;;6.60;99.90;;;;;;5032199;28;20551;-76
2023/04/02 03:45:18;;;;;;;12.73;9.83;;;6.60;99.90;;;;;;5020375;28;20060;-76
2023/04/02 03:47:55;;;;;;;11.57;10.07;;;6.60;99.90;;;;;;5031402;28;20033;-76
2023/04/02 03:50:29;;;;;;;10.30;9.20;;;6.60;99.90;;;;;;5031764;28;20116;-76
2023/04/02 03:53:00;;;;;;;11.10;9.63;;;6.60;99.90;;;;;;5031178;28;20565;-76
2023/04/02 03:55:29;;;;;;;11.10;9.50;;;6.60;99.90;;;;;;5031289;28;20018;-76
2023/04/02 03:58:11;;;;;;;11.57;9.93;;;6.60;99.90;;;;;;5031255;28;20021;-76
2023/04/02 04:00:59;;;;;;;11.83;10.23;;;6.50;99.90;;;;;;5032187;28;20425;-76
2023/04/02 04:03:49;;;;;;;14.40;10.93;;;6.60;99.90;;;;;;5029774;28;20050;-76
2023/04/02 04:06:26;;;;;;;10.73;9.63;;;6.50;99.90;;;;;;5031360;28;20026;-76
2023/04/02 04:08:59;;;;;;;11.60;10.17;;;6.40;99.90;;;;;;5031242;28;20107;-76
2023/04/02 04:11:31;;;;;;;13.13;10.50;;;6.40;99.90;;;;;;5031340;28;20034;-76
2023/04/02 04:14:14;;;;;;;11.97;10.07;;;6.40;99.90;;;;;;5030746;28;20040;-76
2023/04/02 04:17:03;;;;;;;12.97;11.17;;;6.40;99.90;;;;;;5030990;28;20056;-75
2023/04/02 04:19:45;;;;;;;12.03;10.83;;;6.30;99.90;;;;;;5029645;28;20028;-76
2023/04/02 04:22:17;;;;;;;13.73;12.17;;;6.30;99.90;;;;;;5031066;28;20025;-76
2023/04/02 04:24:44;;;;;;;18.43;13.33;;;6.30;99.90;;;;;;5031060;28;20061;-76
2023/04/02 04:27:22;;;;;;;18.07;12.13;;;6.30;99.90;;;;;;5030080;28;20508;-76
2023/04/02 04:29:52;;;;;;;14.47;11.77;;;6.30;99.90;;;;;;5032478;28;20026;-76
2023/04/02 04:32:41;;;;;;;14.33;11.83;;;6.30;99.90;;;;;;5041745;28;20022;-76
2023/04/02 04:35:28;;;;;;;18.57;11.70;;;6.30;99.90;;;;;;5030554;28;20107;-76
2023/04/02 04:38:16;;;;;;;12.67;10.53;;;6.30;99.90;;;;;;5040721;28;20029;-76
2023/04/02 04:40:52;;;;;;;15.17;13.17;;;6.30;99.90;;;;;;5039709;28;20151;-76
2023/04/02 04:44:05;;;;;;;12.83;11.50;;;6.30;99.90;;;;;;5046012;28;20032;-76
2023/04/02 04:46:40;;;;;;;13.23;10.67;;;6.30;99.90;;;;;;5032211;28;20029;-76
2023/04/02 04:49:15;;;;;;;13.67;10.27;;;6.20;99.90;;;;;;5047904;28;20024;-76
2023/04/02 04:51:47;;;;;;;11.73;10.27;;;6.20;99.90;;;;;;5040328;28;20371;-76
2023/04/02 04:54:14;;;;;;;13.73;10.50;;;6.20;99.90;;;;;;5036200;28;20086;-76
2023/04/02 04:56:48;;;;;;;11.43;8.83;;;6.20;99.90;;;;;;5039448;28;20044;-76
2023/04/02 04:59:21;;;;;;;12.47;9.63;;;6.10;99.90;;;;;;5043247;28;20032;-75
2023/04/02 05:02:05;;;;;;;10.63;7.77;;;6.10;99.90;;;;;;5040819;28;20477;-76
2023/04/02 05:04:35;;;;;;;10.90;7.70;;;6.10;99.90;;;;;;5038616;28;20025;-76
2023/04/02 05:07:16;;;;;;;8.67;6.63;;;6.00;99.90;;;;;;5037475;28;20493;-76
2023/04/02 05:09:44;;;;;;;11.00;6.03;;;5.90;99.90;;;;;;5033690;28;20122;-75
2023/04/02 05:12:33;;;;;;;9.57;6.57;;;5.90;99.90;;;;;;5045418;28;20013;-75
2023/04/02 05:15:29;;;;;;;6.67;5.70;;;5.80;99.90;;;;;;5038916;28;20029;-76
2023/04/02 05:18:18;;;;;;;10.73;5.50;;;5.80;99.90;;;;;;5026284;28;20076;-76
2023/04/02 05:21:05;;;;;;;7.87;5.77;;;5.70;99.90;;;;;;5044786;28;20049;-76
2023/04/02 05:23:43;;;;;;;7.73;4.90;;;5.70;99.90;;;;;;5038529;28;20052;-75
2023/04/02 05:26:31;;;;;;;8.50;4.70;;;5.60;99.90;;;;;;5038289;28;20033;-75
2023/04/02 05:29:19;;;;;;;6.40;3.87;;;5.50;99.90;;;;;;5017205;28;20057;-75
2023/04/02 05:31:56;;;;;;;9.10;4.70;;;5.50;99.90;;;;;;5031526;28;20017;-74
2023/04/02 05:34:29;;;;;;;6.13;4.17;;;5.40;99.90;;;;;;5032520;28;20029;-76
2023/04/02 05:36:54;;;;;;;10.37;3.97;;;5.40;99.90;;;;;;5029468;28;20049;-75
2023/04/02 05:39:25;;;;;;;7.47;3.43;;;5.40;99.90;;;;;;5032167;28;20053;-75
2023/04/02 05:42:02;;;;;;;7.67;4.00;;;5.40;99.90;;;;;;5030782;28;20044;-75
2023/04/02 05:44:35;;;;;;;6.13;3.37;;;5.40;99.90;;;;;;5035341;28;20486;-76
2023/04/02 05:47:18;;;;;;;5.57;3.33;;;5.40;99.90;;;;;;5055691;28;20490;-76
2023/04/02 05:49:51;;;;;;;5.57;3.47;;;5.40;99.90;;;;;;5034942;28;20025;-76
2023/04/02 05:52:28;;;;;;;7.55;3.42;;;5.30;99.90;;;;;;5033425;28;20033;-76
2023/04/02 05:55:01;;;;;;;4.73;3.23;;;5.30;99.90;;;;;;5033001;28;20041;-75
2023/04/02 05:57:37;;;;;;;8.07;3.40;;;5.30;99.90;;;;;;5039399;28;20030;-76
2023/04/02 06:00:14;;;;;;;5.80;2.60;;;5.30;99.90;;;;;;5026372;28;20033;-76
2023/04/02 06:02:51;;;;;;;4.33;2.90;;;5.20;99.90;;;;;;5036967;28;20038;-77
2023/04/02 06:05:22;;;;;;;7.30;3.77;;;5.20;99.90;;;;;;5036014;28;20087;-76
2023/04/02 06:08:30;;;;;;;5.50;3.07;;;5.30;99.90;;;;;;5036079;28;20445;-76
2023/04/02 06:11:10;;;;;;;3.97;2.40;;;5.30;99.90;;;;;;5009014;28;20017;-76
2023/04/02 06:13:35;;;;;;;12.63;3.27;;;5.30;99.90;;;;;;5011111;28;20121;-76
2023/04/02 06:16:02;;;;;;;8.57;2.63;;;5.30;99.90;;;;;;5010888;28;20117;-76
2023/04/02 06:18:33;;;;;;;4.40;2.40;;;5.30;99.90;;;;;;4994919;28;20037;-76
2023/04/02 06:21:00;;;;;;;4.57;2.13;;;5.30;99.90;;;;;;5011000;28;20522;-76
2023/04/02 06:23:45;;;;;;;8.43;1.87;;;5.30;99.90;;;;;;5011352;28;20060;-75
2023/04/02 06:26:18;;;;;;;10.13;2.37;;;5.30;99.90;;;;;;5010239;28;20057;-75
2023/04/02 06:28:56;;;;;;;3.93;1.90;;;5.30;99.90;;;;;;5008211;28;20112;-75
2023/04/02 06:31:54;;;;;;;6.33;2.30;;;5.30;99.90;;;;;;5011147;28;20060;-75
2023/04/02 06:34:22;;;;;;;4.87;2.10;;;5.30;99.90;;;;;;4992426;28;20046;-75
2023/04/02 06:36:50;;;;;;;7.60;3.53;;;5.40;99.90;;;;;;5010561;28;20490;-75
2023/04/02 06:39:21;;;;;;;5.80;2.37;;;5.40;99.90;;;;;;5010738;28;20022;-76
2023/04/02 06:42:14;;;;;;;8.60;2.50;;;5.30;99.90;;;;;;5024847;28;20032;-76
2023/04/02 06:44:40;;;;;;;5.27;1.97;;;5.30;99.90;;;;;;5041878;28;20033;-76
2023/04/02 06:47:28;;;;;;;6.67;1.83;;;5.20;99.90;;;;;;5044486;28;20083;-76
2023/04/02 06:50:06;;;;;;;8.33;2.93;;;5.20;99.90;;;;;;5038378;28;20013;-76
2023/04/02 06:52:38;;;;;;;7.63;2.60;;;5.10;99.90;;;;;;5049706;28;20079;-76
2023/04/02 06:55:16;;;;;;;8.77;2.10;;;5.10;99.90;;;;;;5037960;28;20056;-76
2023/04/02 06:57:41;;;;;;;6.00;2.37;;;5.10;99.90;;;;;;5033597;28;20036;-76
2023/04/02 07:00:25;;;;;;;6.43;2.00;;;5.10;99.90;;;;;;5037116;28;20033;-75
2023/04/02 07:02:52;;;;;;;5.77;2.53;;;5.10;99.90;;;;;;5046407;28;20049;-75
2023/04/02 07:05:18;;;;;;;7.53;2.23;;;5.10;99.90;;;;;;5037837;28;20144;-75
2023/04/02 07:07:44;;;;;;;6.50;2.40;;;5.00;99.90;;;;;;5037327;28;20111;-76
2023/04/02 07:10:11;;;;;;;7.07;2.53;;;5.00;99.90;;;;;;5039541;28;20178;-76
2023/04/02 07:12:37;;;;;;;6.73;2.47;;;5.00;99.90;;;;;;5045922;28;20025;-76
2023/04/02 07:15:03;;;;;;;6.47;2.70;;;5.00;99.90;;;;;;5043788;28;20397;-76
2023/04/02 07:17:29;;;;;;;6.77;3.00;;;5.10;99.90;;;;;;5035517;28;20451;-76
2023/04/02 07:19:55;;;;;;;5.70;2.13;;;5.10;99.90;;;;;;5039129;28;20502;-76
2023/04/02 07:22:32;;;;;;;7.13;2.63;;;5.10;99.90;;;;;;5048374;28;20528;-77
2023/04/02 07:24:58;;;;;;;6.07;2.50;;;5.20;99.90;;;;;;5036610;28;20520;-78
2023/04/02 07:27:26;;;;;;;10.33;2.73;;;5.20;99.90;;;;;;5038691;28;20029;-78
2023/04/02 07:29:52;;;;;;;6.23;2.60;;;5.20;99.90;;;;;;5041232;28;20029;-78
2023/04/02 07:32:18;;;;;;;4.57;2.47;;;5.20;99.90;;;;;;5043478;28;20349;-78
2023/04/02 07:34:44;;;;;;;5.53;3.00;;;5.20;99.90;;;;;;5032100;28;20056;-78
2023/04/02 07:37:13;;;;;;;5.60;2.70;;;5.20;99.90;;;;;;5038215;28;20427;-78
2023/04/02 07:39:39;;;;;;;5.90;3.10;;;5.10;99.90;;;;;;5032054;28;20026;-78
2023/04/02 07:42:04;;;;;;;4.93;3.13;;;5.10;99.90;;;;;;5043214;28;20079;-78
2023/04/02 07:44:30;;;;;;;4.00;2.57;;;5.20;99.90;;;;;;5038747;28;20087;-78
2023/04/02 07:46:56;;;;;;;5.27;3.40;;;5.30;99.90;;;;;;5037052;28;20187;-78
2023/04/02 07:49:21;;;;;;;5.33;2.73;;;5.30;99.90;;;;;;5033503;28;20501;-78
2023/04/02 07:51:47;;;;;;;7.30;3.77;;;5.40;99.90;;;;;;5031968;28;20172;-78
2023/04/02 07:54:12;;;;;;;6.47;3.40;;;5.50;99.90;;;;;;5030603;28;20025;-78
2023/04/02 07:56:38;;;;;;;7.93;3.20;;;5.60;99.90;;;;;;5032157;28;20021;-78
2023/04/02 07:59:04;;;;;;;7.37;3.07;;;5.60;99.90;;;;;;5030443;28;20034;-79
2023/04/02 08:01:34;;;;;;;6.23;3.50;;;5.70;99.90;;;;;;5029982;28;20053;-78
2023/04/02 08:04:01;;;;;;;4.50;3.10;;;5.70;99.90;;;;;;5029410;28;20049;-78
2023/04/02 08:06:27;;;;;;;5.13;3.43;;;5.80;99.90;;;;;;5030245;28;20025;-78
2023/04/02 08:08:53;;;;;;;6.30;3.70;;;5.80;99.90;;;;;;5030151;28;20144;-78
2023/04/02 08:11:18;;;;;;;5.93;3.77;;;5.80;99.90;;;;;;5029755;28;20033;-79
2023/04/02 08:13:44;;;;;;;7.27;3.83;;;5.80;99.90;;;;;;5032214;28;20029;-78
2023/04/02 08:16:10;;;;;;;5.00;4.03;;;5.80;99.90;;;;;;5033078;28;20029;-78
2023/04/02 08:18:36;;;;;;;7.20;4.13;;;5.80;99.90;;;;;;5034062;28;20112;-78
2023/04/02 08:21:05;;;;;;;6.70;3.40;;;5.70;99.90;;;;;;5032275;28;20033;-82
2023/04/02 08:23:31;;;;;;;10.03;4.07;;;5.60;99.90;;;;;;5068759;28;20020;-79
2023/04/02 08:25:56;;;;;;;4.47;3.20;;;5.60;99.90;;;;;;5033956;28;20021;-80
2023/04/02 08:28:22;;;;;;;5.97;3.37;;;5.60;99.90;;;;;;5036191;28;20378;-79
2023/04/02 08:30:48;;;;;;;6.23;3.43;;;5.70;99.90;;;;;;5039177;28;20381;-80
2023/04/02 08:33:15;;;;;;;9.23;3.50;;;5.70;99.90;;;;;;5040993;28;20035;-79
2023/04/02 08:35:41;;;;;;;6.00;3.53;;;5.70;99.90;;;;;;5049781;28;20021;-78
2023/04/02 08:38:07;;;;;;;3.23;2.20;;;5.70;99.90;;;;;;5031035;28;20017;-78
2023/04/02 08:40:36;;;;;;;4.03;2.50;;;5.70;99.90;;;;;;5032174;28;20101;-77
2023/04/02 08:43:32;;;;;;;6.90;2.40;;;5.60;99.90;;;;;;5031882;28;20029;-77
2023/04/02 08:46:17;;;;;;;3.87;2.27;;;5.60;99.90;;;;;;5030827;28;20041;-79
2023/04/02 08:48:50;;;;;;;5.20;3.17;;;5.60;99.90;;;;;;5029625;28;20033;-78
2023/04/02 08:51:22;;;;;;;5.37;2.70;;;5.70;99.90;;;;;;5030860;28;20025;-77
2023/04/02 08:53:49;;;;;;;4.87;3.07;;;5.80;99.90;;;;;;5029266;28;20029;-77
2023/04/02 08:56:39;;;;;;;5.03;2.93;;;5.80;99.90;;;;;;5030507;28;20018;-77
2023/04/02 08:59:20;;;;;;;5.40;3.33;;;5.90;99.90;;;;;;5030444;28;20485;-78
2023/04/02 09:02:00;;;;;;;5.63;3.90;;;5.90;99.90;;;;;;5037661;28;20052;-78
2023/04/02 09:04:26;;;;;;;8.63;4.13;;;6.00;99.90;;;;;;5044389;28;20025;-77
2023/04/02 09:06:54;;;;;;;8.50;4.10;;;6.10;99.90;;;;;;5045770;28;20025;-78
2023/04/02 09:09:22;;;;;;;6.87;3.57;;;6.10;99.90;;;;;;5048710;28;20045;-77
2023/04/02 09:12:01;;;;;;;4.50;2.87;;;6.20;99.90;;;;;;5047275;28;20021;-77
2023/04/02 09:14:56;;;;;;;4.87;2.73;;;6.20;99.90;;;;;;5045868;28;20402;-77
2023/04/02 09:17:24;;;;;;;7.80;2.70;;;6.30;99.90;;;;;;5046039;28;20075;-77
2023/04/02 09:20:16;;;;;;;5.73;2.70;;;6.40;99.90;;;;;;5045460;28;20078;-77
2023/04/02 09:22:49;;;;;;;10.23;3.63;;;6.50;99.90;;;;;;5038412;28;20029;-77
2023/04/02 09:25:33;;;;;;;7.97;3.20;;;6.60;99.90;;;;;;5048890;28;20512;-76
2023/04/02 09:28:03;;;;;;;5.05;2.83;;;6.70;99.90;;;;;;5045515;28;20021;-77
2023/04/02 09:30:32;;;;;;;6.77;3.37;;;6.70;99.90;;;;;;5046903;28;20139;-77
2023/04/02 09:33:01;;;;;;;7.63;3.57;;;6.70;99.90;;;;;;5034060;28;20083;-77
2023/04/02 09:35:31;;;;;;;7.47;3.33;;;6.70;99.90;;;;;;5028662;28;20104;-77
2023/04/02 09:38:09;;;;;;;6.40;2.73;;;6.90;99.90;;;;;;5030474;28;20085;-77
2023/04/02 09:40:52;;;;;;;6.23;3.13;;;7.00;99.90;;;;;;5029021;28;20033;-77
2023/04/02 09:43:37;;;;;;;2.70;2.20;;;7.00;99.90;;;;;;5028815;28;20021;-77
2023/04/02 09:46:23;;;;;;;5.73;2.17;;;7.10;99.90;;;;;;5029228;28;20032;-77
2023/04/02 09:48:53;;;;;;;9.10;3.17;;;7.10;99.90;;;;;;5028153;28;20045;-77
2023/04/02 09:51:33;;;;;;;6.83;2.57;;;7.20;99.90;;;;;;5028742;28;20619;-77
2023/04/02 09:54:01;;;;;;;3.97;2.50;;;7.20;99.90;;;;;;5029801;28;20030;-76
2023/04/02 09:56:27;;;;;;;4.03;2.07;;;7.20;99.90;;;;;;5017554;28;20144;-77
2023/04/02 09:59:11;;;;;;;4.27;2.00;;;7.20;99.90;;;;;;5029726;28;20099;-75
2023/04/02 10:01:46;;;;;;;4.43;1.60;;;7.30;99.90;;;;;;5030084;28;20400;-78
2023/04/02 10:04:34;;;;;;;4.83;1.97;;;7.30;99.90;;;;;;5030014;28;20056;-75
2023/04/02 10:07:01;;;;;;;4.07;2.13;;;7.30;99.90;;;;;;5037865;28;20079;-74
2023/04/02 10:09:30;;;;;;;6.77;2.00;;;7.30;99.90;;;;;;5047120;28;20478;-74
2023/04/02 10:11:57;;;;;;;8.77;2.27;;;7.30;99.90;;;;;;5038461;28;20013;-75
2023/04/02 10:14:31;;;;;;;3.87;2.20;;;7.30;99.90;;;;;;5033398;28;20505;-75
2023/04/02 10:17:07;;;;;;;3.63;2.20;;;7.30;99.90;;;;;;5029392;28;20021;-76
2023/04/02 10:19:34;;;;;;;5.13;1.67;;;7.30;99.90;;;;;;5029408;28;20077;-75
2023/04/02 10:22:05;;;;;;;4.23;2.23;;;7.30;99.90;;;;;;5034110;28;20025;-75
2023/04/02 10:24:30;;;;;;;2.60;1.40;;;7.30;99.90;;;;;;5031768;28;20115;-76
2023/04/02 10:27:21;;;;;;;6.07;1.87;;;7.30;99.90;;;;;;5030381;28;20630;-76
2023/04/02 10:30:05;;;;;;;5.40;1.73;;;7.10;99.90;;;;;;5035291;28;20032;-75
2023/04/02 10:32:35;;;;;;;;;;;6.90;99.90;;;;;;5030927;28;20028;-75
2023/04/02 10:35:14;;;;;;;4.47;1.40;;;6.70;99.90;;;;;;5046041;28;19916;-76
2023/04/02 10:37:46;;;;;;;3.27;1.87;;;6.70;99.90;;;;;;5034303;28;20018;-76
2023/04/02 10:40:33;;;;;;;5.10;2.10;;;6.80;99.90;;;;;;5029388;28;20100;-76
2023/04/02 10:43:29;;;;;;;4.20;1.97;;;6.90;99.90;;;;;;5042096;28;20039;-76
2023/04/02 10:46:24;;;;;;;2.27;1.67;;;7.00;99.90;;;;;;5039583;28;20021;-76
2023/04/02 10:49:18;;;;;;;5.40;2.27;;;7.20;99.90;;;;;;5044745;28;20037;-75
2023/04/02 10:51:49;;;;;;;5.07;2.00;;;7.40;99.90;;;;;;5040788;28;20489;-76
2023/04/02 10:54:46;;;;;;;4.20;2.13;;;7.60;99.90;;;;;;5039281;28;20029;-76
2023/04/02 10:57:35;;;;;;;2.70;2.03;;;7.60;99.90;;;;;;5033953;28;20052;-75
2023/04/02 11:00:10;;;;;;;8.33;2.63;;;7.60;99.90;;;;;;5040060;28;20051;-75
2023/04/02 11:03:00;;;;;;;5.37;2.70;;;7.60;99.90;;;;;;5044063;28;20049;-75
2023/04/02 11:05:43;;;;;;;3.57;2.50;;;7.60;99.90;;;;;;5030518;28;20022;-75
2023/04/02 11:08:33;;;;;;;5.53;2.20;;;7.50;99.90;;;;;;5041279;28;20575;-75
2023/04/02 11:11:20;;;;;;;5.63;2.87;;;7.40;99.90;;;;;;5044931;28;20033;-75
2023/04/02 11:14:00;;;;;;;13.43;3.13;;;7.30;99.90;;;;;;5029444;28;20422;-75
2023/04/02 11:16:26;;;;;;;4.53;2.53;;;7.30;99.90;;;;;;5033287;28;20035;-75
2023/04/02 11:19:13;;;;;;;4.40;1.90;;;7.40;99.90;;;;;;5029008;28;20105;-75
2023/04/02 11:21:51;;;;;;;3.50;2.60;;;7.40;99.90;;;;;;5017840;28;20053;-76
2023/04/02 11:24:31;;;;;;;6.50;2.27;;;7.40;99.90;;;;;;5040866;28;20033;-75
2023/04/02 11:27:24;;;;;;;3.93;1.70;;;7.40;99.90;;;;;;5032781;28;20029;-76
2023/04/02 11:30:02;;;;;;;6.00;1.93;;;7.40;99.90;;;;;;5033246;28;20079;-75
2023/04/02 11:32:42;;;;;;;4.13;1.53;;;7.50;99.90;;;;;;5051754;28;20111;-79
2023/04/02 11:35:31;;;;;;;4.73;1.33;;;7.50;99.90;;;;;;5051011;28;20036;-75
2023/04/02 11:38:17;;;;;;;6.50;2.30;;;7.60;99.90;;;;;;5051681;28;20021;-76
2023/04/02 11:40:53;;;;;;;6.80;2.03;;;7.70;99.90;;;;;;5052792;28;20128;-76
2023/04/02 11:43:35;;;;;;;4.63;1.50;;;7.70;99.90;;;;;;5050216;28;20359;-79
2023/04/02 11:46:19;;;;;;;4.40;1.60;;;7.90;99.90;;;;;;5048431;28;20022;-77
2023/04/02 11:48:45;;;;;;;3.78;2.13;;;7.80;99.90;;;;;;5049970;28;20398;-77
2023/04/02 11:51:21;;;;;;;4.43;1.90;;;7.90;99.90;;;;;;5048510;28;20031;-76
2023/04/02 11:53:50;;;;;;;5.93;1.80;;;7.90;99.90;;;;;;5051647;28;20024;-77
2023/04/02 11:56:28;;;;;;;5.83;2.20;;;7.90;99.90;;;;;;5051448;28;20417;-77
2023/04/02 11:59:07;;;;;;;5.00;2.17;;;8.00;99.90;;;;;;5051135;28;20063;-77
2023/04/02 12:02:13;;;;;;;4.07;1.80;;;8.00;99.90;;;;;;5050640;28;20382;-77
2023/04/02 12:05:08;;;;;;;4.47;1.80;;;8.00;99.90;;;;;;5047741;28;20033;-77
2023/04/02 12:07:55;;;;;;;3.05;1.55;;;8.00;99.90;;;;;;5045106;28;20112;-77
2023/04/02 12:10:27;;;;;;;6.90;2.10;;;8.10;99.90;;;;;;5037658;28;20040;-77
2023/04/02 12:12:52;;;;;;;2.97;1.90;;;8.10;99.90;;;;;;5038503;28;20024;-77
2023/04/02 12:15:43;;;;;;;6.07;1.77;;;8.10;99.90;;;;;;5032603;28;20432;-77
2023/04/02 12:18:23;;;;;;;3.20;2.00;;;8.20;99.90;;;;;;5034269;28;20116;-77
2023/04/02 12:20:55;;;;;;;5.93;2.17;;;8.30;99.90;;;;;;5037970;28;20473;-77
2023/04/02 12:23:30;;;;;;;6.67;2.30;;;8.30;99.90;;;;;;5047913;28;20017;-77
2023/04/02 12:25:58;;;;;;;7.10;2.13;;;8.40;99.90;;;;;;5032313;28;20037;-77
2023/04/02 12:28:27;;;;;;;4.97;1.80;;;8.40;99.90;;;;;;5044060;28;20017;-77
2023/04/02 12:31:01;;;;;;;4.70;1.60;;;8.40;99.90;;;;;;5041743;28;20079;-77
2023/04/02 12:33:32;;;;;;;7.65;2.13;;;8.50;99.90;;;;;;5039531;28;20033;-77
2023/04/02 12:36:00;;;;;;;4.77;1.80;;;8.50;99.90;;;;;;5022643;28;20079;-77
2023/04/02 12:38:28;;;;;;;5.20;1.50;;;8.50;99.90;;;;;;5044958;28;20040;-76
2023/04/02 12:40:59;;;;;;;4.87;1.60;;;8.50;99.90;;;;;;5044918;28;20025;-77
2023/04/02 12:43:30;;;;;;;6.73;1.70;;;8.60;99.90;;;;;;5046147;28;20021;-77
2023/04/02 12:46:03;;;;;;;3.80;1.50;;;8.60;99.90;;;;;;5047596;28;20424;-77
2023/04/02 12:48:29;;;;;;;4.33;2.10;;;8.70;99.70;;;;;;5047209;28;20032;-77
2023/04/02 12:50:56;;;;;;;6.73;2.07;;;8.70;99.30;;;;;;5047871;28;20017;-77
2023/04/02 12:53:28;;;;;;;4.10;1.83;;;8.70;99.40;;;;;;5047798;28;20032;-77
2023/04/02 12:55:54;;;;;;;5.67;1.60;;;8.70;99.20;;;;;;5044773;28;20048;-77
2023/04/02 12:58:35;;;;;;;6.37;2.03;;;8.70;98.80;;;;;;5041870;28;20474;-77
2023/04/02 13:01:15;;;;;;;5.57;1.90;;;8.80;98.80;;;;;;5035591;28;20025;-77
2023/04/02 13:03:40;;;;;;;5.90;1.70;;;8.80;98.50;;;;;;5040736;28;20025;-77
2023/04/02 13:06:33;;;;;;;4.10;1.17;;;8.80;98.50;;;;;;5031783;28;20034;-77
2023/04/02 13:09:01;;;;;;;3.50;1.40;;;8.80;98.40;;;;;;5029156;28;20040;-76
2023/04/02 13:11:34;;;;;;;5.23;1.43;;;8.80;98.10;;;;;;5031029;28;20025;-76
2023/04/02 13:14:02;;;;;;;3.00;1.33;;;8.80;98.20;;;;;;5032592;28;20124;-77
2023/04/02 13:16:37;;;;;;;4.20;1.40;;;8.80;98.10;;;;;;5047341;28;20523;-77
2023/04/02 13:19:32;;;;;;;3.17;1.13;;;8.80;98.20;;;;;;5045911;28;20073;-77
2023/04/02 13:22:02;;;;;;;4.50;1.63;;;8.90;97.60;;;;;;5041835;28;20040;-78
2023/04/02 13:24:32;;;;;;;4.90;1.57;;;8.90;97.00;;;;;;5036464;28;20467;-77
2023/04/02 13:27:00;;;;;;;2.40;1.37;;;8.90;96.80;;;;;;5036212;28;20168;-76
2023/04/02 13:29:31;;;;;;;2.73;1.00;;;8.90;96.90;;;;;;5041584;28;20074;-76
2023/04/02 13:31:59;;;;;;;4.77;1.63;;;9.00;97.00;;;;;;5033205;28;20036;-76
2023/04/02 13:34:25;;;;;;;2.67;1.43;;;9.00;96.70;;;;;;5038835;28;20092;-75